sensor_id;sensor_type;location;lat;lon;timestamp;P1;durP1;ratioP1;P2;durP2;ratioP2
75021;SDS011;63583;49.976;20.182;2023-04-24T00:02:23;4.78;;;3.67;;
75021;SDS011;63583;49.976;20.182;2023-04-24T00:04:49;5.85;;;3.60;;
75021;SDS011;63583;49.976;20.182;2023-04-24T00:07:15;7.20;;;4.00;;
75021;SDS011;63583;49.976;20.182;2023-04-24T00:09:45;5.07;;;3.30;;
75021;SDS011;63583;49.976;20.182;2023-04-24T00:12:11;6.28;;;3.83;;
75021;SDS011;63583;49.976;20.182;2023-04-24T00:14:36;6.93;;;3.67;;
75021;SDS011;63583;49.976;20.182;2023-04-24T00:17:02;6.53;;;3.97;;
75021;SDS011;63583;49.976;20.182;2023-04-24T00:19:28;6.75;;;3.78;;
75021;SDS011;63583;49.976;20.182;2023-04-24T00:21:54;5.63;;;3.53;;
75021;SDS011;63583;49.976;20.182;2023-04-24T00:24:20;6.20;;;3.97;;
75021;SDS011;63583;49.976;20.182;2023-04-24T00:26:46;6.20;;;3.80;;
75021;SDS011;63583;49.976;20.182;2023-04-24T00:29:12;5.57;;;3.55;;
75021;SDS011;63583;49.976;20.182;2023-04-24T00:31:38;6.70;;;3.70;;
75021;SDS011;63583;49.976;20.182;2023-04-24T00:34:04;5.47;;;3.50;;
75021;SDS011;63583;49.976;20.182;2023-04-24T00:36:30;6.40;;;3.60;;
75021;SDS011;63583;49.976;20.182;2023-04-24T00:38:56;4.90;;;3.58;;
75021;SDS011;63583;49.976;20.182;2023-04-24T00:41:22;5.68;;;3.67;;
75021;SDS011;63583;49.976;20.182;2023-04-24T00:43:49;5.15;;;3.55;;
75021;SDS011;63583;49.976;20.182;2023-04-24T00:46:15;5.10;;;3.50;;
75021;SDS011;63583;49.976;20.182;2023-04-24T00:48:41;6.03;;;3.50;;
75021;SDS011;63583;49.976;20.182;2023-04-24T00:51:08;6.35;;;3.95;;
75021;SDS011;63583;49.976;20.182;2023-04-24T00:53:34;7.07;;;3.90;;
75021;SDS011;63583;49.976;20.182;2023-04-24T00:56:00;5.00;;;3.35;;
75021;SDS011;63583;49.976;20.182;2023-04-24T00:58:26;6.55;;;4.00;;
75021;SDS011;63583;49.976;20.182;2023-04-24T01:00:52;6.47;;;3.85;;
75021;SDS011;63583;49.976;20.182;2023-04-24T01:03:20;5.25;;;3.50;;
75021;SDS011;63583;49.976;20.182;2023-04-24T01:05:48;4.78;;;3.30;;
75021;SDS011;63583;49.976;20.182;2023-04-24T01:08:14;5.65;;;3.42;;
75021;SDS011;63583;49.976;20.182;2023-04-24T01:10:40;6.20;;;3.55;;
75021;SDS011;63583;49.976;20.182;2023-04-24T01:13:07;4.97;;;3.33;;
75021;SDS011;63583;49.976;20.182;2023-04-24T01:15:34;5.28;;;3.15;;
75021;SDS011;63583;49.976;20.182;2023-04-24T01:18:00;6.75;;;4.18;;
75021;SDS011;63583;49.976;20.182;2023-04-24T01:20:26;5.32;;;3.67;;
75021;SDS011;63583;49.976;20.182;2023-04-24T01:22:52;5.60;;;3.70;;
75021;SDS011;63583;49.976;20.182;2023-04-24T01:25:20;5.85;;;3.35;;
75021;SDS011;63583;49.976;20.182;2023-04-24T01:27:45;5.07;;;3.42;;
75021;SDS011;63583;49.976;20.182;2023-04-24T01:30:11;5.85;;;3.45;;
75021;SDS011;63583;49.976;20.182;2023-04-24T01:32:37;5.05;;;3.25;;
75021;SDS011;63583;49.976;20.182;2023-04-24T01:35:04;6.68;;;3.50;;
75021;SDS011;63583;49.976;20.182;2023-04-24T01:37:30;6.53;;;3.80;;
75021;SDS011;63583;49.976;20.182;2023-04-24T01:39:57;6.25;;;3.70;;
75021;SDS011;63583;49.976;20.182;2023-04-24T01:42:23;7.03;;;3.72;;
75021;SDS011;63583;49.976;20.182;2023-04-24T01:44:49;5.78;;;3.42;;
75021;SDS011;63583;49.976;20.182;2023-04-24T01:47:15;5.82;;;3.78;;
75021;SDS011;63583;49.976;20.182;2023-04-24T01:49:40;6.10;;;3.70;;
75021;SDS011;63583;49.976;20.182;2023-04-24T01:52:06;4.68;;;3.30;;
75021;SDS011;63583;49.976;20.182;2023-04-24T01:54:32;5.68;;;3.33;;
75021;SDS011;63583;49.976;20.182;2023-04-24T01:56:57;5.45;;;3.67;;
75021;SDS011;63583;49.976;20.182;2023-04-24T01:59:23;8.60;;;3.85;;
75021;SDS011;63583;49.976;20.182;2023-04-24T02:01:50;4.32;;;3.30;;
75021;SDS011;63583;49.976;20.182;2023-04-24T02:04:15;6.07;;;3.55;;
75021;SDS011;63583;49.976;20.182;2023-04-24T02:06:41;5.40;;;3.38;;
75021;SDS011;63583;49.976;20.182;2023-04-24T02:09:07;5.93;;;3.17;;
75021;SDS011;63583;49.976;20.182;2023-04-24T02:11:33;5.65;;;3.42;;
75021;SDS011;63583;49.976;20.182;2023-04-24T02:13:58;5.97;;;3.78;;
75021;SDS011;63583;49.976;20.182;2023-04-24T02:16:24;5.13;;;3.50;;
75021;SDS011;63583;49.976;20.182;2023-04-24T02:18:50;10.35;;;3.63;;
75021;SDS011;63583;49.976;20.182;2023-04-24T02:21:15;6.30;;;3.72;;
75021;SDS011;63583;49.976;20.182;2023-04-24T02:23:41;5.55;;;3.28;;
75021;SDS011;63583;49.976;20.182;2023-04-24T02:26:06;5.15;;;3.28;;
75021;SDS011;63583;49.976;20.182;2023-04-24T02:28:32;5.70;;;3.70;;
75021;SDS011;63583;49.976;20.182;2023-04-24T02:30:58;6.72;;;3.72;;
75021;SDS011;63583;49.976;20.182;2023-04-24T02:33:24;6.47;;;3.63;;
75021;SDS011;63583;49.976;20.182;2023-04-24T02:35:49;5.60;;;3.70;;
75021;SDS011;63583;49.976;20.182;2023-04-24T02:38:15;7.88;;;3.70;;
75021;SDS011;63583;49.976;20.182;2023-04-24T02:40:40;5.72;;;3.45;;
75021;SDS011;63583;49.976;20.182;2023-04-24T02:43:06;5.95;;;3.55;;
75021;SDS011;63583;49.976;20.182;2023-04-24T02:45:32;5.55;;;3.35;;
75021;SDS011;63583;49.976;20.182;2023-04-24T02:48:00;5.65;;;3.50;;
75021;SDS011;63583;49.976;20.182;2023-04-24T02:50:25;5.25;;;3.45;;
75021;SDS011;63583;49.976;20.182;2023-04-24T02:52:51;5.40;;;3.25;;
75021;SDS011;63583;49.976;20.182;2023-04-24T02:55:16;5.80;;;3.53;;
75021;SDS011;63583;49.976;20.182;2023-04-24T02:57:42;6.10;;;3.53;;
75021;SDS011;63583;49.976;20.182;2023-04-24T03:00:08;5.25;;;3.60;;
75021;SDS011;63583;49.976;20.182;2023-04-24T03:02:34;6.68;;;3.60;;
75021;SDS011;63583;49.976;20.182;2023-04-24T03:05:00;6.25;;;4.10;;
75021;SDS011;63583;49.976;20.182;2023-04-24T03:07:26;6.50;;;3.85;;
75021;SDS011;63583;49.976;20.182;2023-04-24T03:09:51;7.25;;;4.00;;
75021;SDS011;63583;49.976;20.182;2023-04-24T03:12:17;5.40;;;3.65;;
75021;SDS011;63583;49.976;20.182;2023-04-24T03:14:45;7.22;;;4.07;;
75021;SDS011;63583;49.976;20.182;2023-04-24T03:17:11;5.25;;;3.60;;
75021;SDS011;63583;49.976;20.182;2023-04-24T03:19:36;5.97;;;4.18;;
75021;SDS011;63583;49.976;20.182;2023-04-24T03:22:02;7.28;;;3.83;;
75021;SDS011;63583;49.976;20.182;2023-04-24T03:24:28;6.55;;;4.13;;
75021;SDS011;63583;49.976;20.182;2023-04-24T03:26:54;6.30;;;3.50;;
75021;SDS011;63583;49.976;20.182;2023-04-24T03:29:21;6.30;;;4.30;;
75021;SDS011;63583;49.976;20.182;2023-04-24T03:31:46;6.10;;;3.92;;
75021;SDS011;63583;49.976;20.182;2023-04-24T03:34:12;7.57;;;3.92;;
75021;SDS011;63583;49.976;20.182;2023-04-24T03:36:38;5.85;;;3.55;;
75021;SDS011;63583;49.976;20.182;2023-04-24T03:39:03;6.07;;;4.00;;
75021;SDS011;63583;49.976;20.182;2023-04-24T03:41:29;6.45;;;3.72;;
75021;SDS011;63583;49.976;20.182;2023-04-24T03:43:55;8.55;;;4.25;;
75021;SDS011;63583;49.976;20.182;2023-04-24T03:46:21;6.53;;;3.88;;
75021;SDS011;63583;49.976;20.182;2023-04-24T03:48:47;6.50;;;4.32;;
75021;SDS011;63583;49.976;20.182;2023-04-24T03:51:12;5.75;;;3.88;;
75021;SDS011;63583;49.976;20.182;2023-04-24T03:53:38;8.70;;;4.40;;
75021;SDS011;63583;49.976;20.182;2023-04-24T03:56:04;8.05;;;4.32;;
75021;SDS011;63583;49.976;20.182;2023-04-24T03:58:29;6.47;;;3.92;;
75021;SDS011;63583;49.976;20.182;2023-04-24T04:00:55;7.55;;;4.00;;
75021;SDS011;63583;49.976;20.182;2023-04-24T04:03:23;6.32;;;4.00;;
75021;SDS011;63583;49.976;20.182;2023-04-24T04:05:49;5.15;;;3.60;;
75021;SDS011;63583;49.976;20.182;2023-04-24T04:08:14;5.85;;;3.40;;
75021;SDS011;63583;49.976;20.182;2023-04-24T04:10:40;5.53;;;3.97;;
75021;SDS011;63583;49.976;20.182;2023-04-24T04:13:06;7.53;;;3.97;;
75021;SDS011;63583;49.976;20.182;2023-04-24T04:15:31;5.65;;;3.60;;
75021;SDS011;63583;49.976;20.182;2023-04-24T04:17:57;5.93;;;3.40;;
75021;SDS011;63583;49.976;20.182;2023-04-24T04:20:23;6.60;;;3.75;;
75021;SDS011;63583;49.976;20.182;2023-04-24T04:22:48;5.75;;;3.33;;
75021;SDS011;63583;49.976;20.182;2023-04-24T04:25:15;6.03;;;3.13;;
75021;SDS011;63583;49.976;20.182;2023-04-24T04:27:40;5.03;;;3.08;;
75021;SDS011;63583;49.976;20.182;2023-04-24T04:30:07;5.20;;;3.70;;
75021;SDS011;63583;49.976;20.182;2023-04-24T04:32:34;6.63;;;3.63;;
75021;SDS011;63583;49.976;20.182;2023-04-24T04:35:00;9.63;;;3.63;;
75021;SDS011;63583;49.976;20.182;2023-04-24T04:37:29;6.88;;;3.60;;
75021;SDS011;63583;49.976;20.182;2023-04-24T04:39:57;6.90;;;3.58;;
75021;SDS011;63583;49.976;20.182;2023-04-24T04:42:23;7.70;;;3.80;;
75021;SDS011;63583;49.976;20.182;2023-04-24T04:44:50;6.25;;;3.60;;
75021;SDS011;63583;49.976;20.182;2023-04-24T04:47:16;5.72;;;3.65;;
75021;SDS011;63583;49.976;20.182;2023-04-24T04:49:43;6.25;;;3.78;;
75021;SDS011;63583;49.976;20.182;2023-04-24T04:52:09;5.53;;;3.67;;
75021;SDS011;63583;49.976;20.182;2023-04-24T04:54:35;6.18;;;3.88;;
75021;SDS011;63583;49.976;20.182;2023-04-24T04:57:00;5.18;;;3.58;;
75021;SDS011;63583;49.976;20.182;2023-04-24T04:59:27;7.82;;;4.15;;
75021;SDS011;63583;49.976;20.182;2023-04-24T05:01:52;6.78;;;3.97;;
75021;SDS011;63583;49.976;20.182;2023-04-24T05:04:18;5.10;;;3.17;;
75021;SDS011;63583;49.976;20.182;2023-04-24T05:06:44;6.38;;;3.80;;
75021;SDS011;63583;49.976;20.182;2023-04-24T05:09:10;6.13;;;4.30;;
75021;SDS011;63583;49.976;20.182;2023-04-24T05:11:35;6.22;;;3.75;;
75021;SDS011;63583;49.976;20.182;2023-04-24T05:14:01;5.72;;;3.65;;
75021;SDS011;63583;49.976;20.182;2023-04-24T05:16:27;5.25;;;3.65;;
75021;SDS011;63583;49.976;20.182;2023-04-24T05:18:52;7.07;;;3.92;;
75021;SDS011;63583;49.976;20.182;2023-04-24T05:21:18;7.03;;;3.85;;
75021;SDS011;63583;49.976;20.182;2023-04-24T05:23:44;5.47;;;3.72;;
75021;SDS011;63583;49.976;20.182;2023-04-24T05:26:09;5.95;;;4.38;;
75021;SDS011;63583;49.976;20.182;2023-04-24T05:28:35;5.97;;;3.78;;
75021;SDS011;63583;49.976;20.182;2023-04-24T05:31:02;4.95;;;3.80;;
75021;SDS011;63583;49.976;20.182;2023-04-24T05:33:28;8.43;;;4.30;;
75021;SDS011;63583;49.976;20.182;2023-04-24T05:35:53;5.75;;;3.83;;
75021;SDS011;63583;49.976;20.182;2023-04-24T05:38:19;6.57;;;3.95;;
75021;SDS011;63583;49.976;20.182;2023-04-24T05:40:45;5.53;;;3.65;;
75021;SDS011;63583;49.976;20.182;2023-04-24T05:43:11;5.70;;;3.60;;
75021;SDS011;63583;49.976;20.182;2023-04-24T05:45:37;5.25;;;3.30;;
75021;SDS011;63583;49.976;20.182;2023-04-24T05:48:04;6.18;;;3.78;;
75021;SDS011;63583;49.976;20.182;2023-04-24T05:50:29;5.68;;;3.75;;
75021;SDS011;63583;49.976;20.182;2023-04-24T05:52:55;6.57;;;3.75;;
75021;SDS011;63583;49.976;20.182;2023-04-24T05:55:23;7.28;;;3.97;;
75021;SDS011;63583;49.976;20.182;2023-04-24T05:57:50;6.85;;;3.88;;
75021;SDS011;63583;49.976;20.182;2023-04-24T06:00:16;5.72;;;3.75;;
75021;SDS011;63583;49.976;20.182;2023-04-24T06:02:45;6.47;;;3.42;;
75021;SDS011;63583;49.976;20.182;2023-04-24T06:05:12;6.18;;;3.85;;
75021;SDS011;63583;49.976;20.182;2023-04-24T06:07:38;6.00;;;3.53;;
75021;SDS011;63583;49.976;20.182;2023-04-24T06:10:03;5.85;;;3.85;;
75021;SDS011;63583;49.976;20.182;2023-04-24T06:12:29;7.35;;;4.10;;
75021;SDS011;63583;49.976;20.182;2023-04-24T06:14:55;5.53;;;3.80;;
75021;SDS011;63583;49.976;20.182;2023-04-24T06:17:21;5.85;;;3.67;;
75021;SDS011;63583;49.976;20.182;2023-04-24T06:19:46;6.47;;;3.83;;
75021;SDS011;63583;49.976;20.182;2023-04-24T06:22:12;6.10;;;4.15;;
75021;SDS011;63583;49.976;20.182;2023-04-24T06:24:39;7.75;;;4.40;;
75021;SDS011;63583;49.976;20.182;2023-04-24T06:27:05;6.57;;;4.22;;
75021;SDS011;63583;49.976;20.182;2023-04-24T06:29:31;7.03;;;4.28;;
75021;SDS011;63583;49.976;20.182;2023-04-24T06:31:58;7.40;;;3.90;;
75021;SDS011;63583;49.976;20.182;2023-04-24T06:34:23;6.25;;;3.88;;
75021;SDS011;63583;49.976;20.182;2023-04-24T06:36:49;6.53;;;3.85;;
75021;SDS011;63583;49.976;20.182;2023-04-24T06:39:14;6.20;;;4.28;;
75021;SDS011;63583;49.976;20.182;2023-04-24T06:41:40;5.38;;;3.65;;
75021;SDS011;63583;49.976;20.182;2023-04-24T06:44:06;5.82;;;3.65;;
75021;SDS011;63583;49.976;20.182;2023-04-24T06:46:31;6.85;;;4.22;;
75021;SDS011;63583;49.976;20.182;2023-04-24T06:48:57;7.18;;;4.63;;
75021;SDS011;63583;49.976;20.182;2023-04-24T06:51:23;6.88;;;4.25;;
75021;SDS011;63583;49.976;20.182;2023-04-24T06:53:49;5.45;;;3.75;;
75021;SDS011;63583;49.976;20.182;2023-04-24T06:56:16;5.93;;;3.33;;
75021;SDS011;63583;49.976;20.182;2023-04-24T06:58:42;7.05;;;3.83;;
75021;SDS011;63583;49.976;20.182;2023-04-24T07:01:08;6.60;;;3.97;;
75021;SDS011;63583;49.976;20.182;2023-04-24T07:03:33;5.68;;;3.95;;
75021;SDS011;63583;49.976;20.182;2023-04-24T07:05:59;5.82;;;4.15;;
75021;SDS011;63583;49.976;20.182;2023-04-24T07:08:24;5.22;;;3.53;;
75021;SDS011;63583;49.976;20.182;2023-04-24T07:10:50;7.32;;;4.00;;
75021;SDS011;63583;49.976;20.182;2023-04-24T07:13:17;6.43;;;3.92;;
75021;SDS011;63583;49.976;20.182;2023-04-24T07:15:43;5.30;;;3.67;;
75021;SDS011;63583;49.976;20.182;2023-04-24T07:18:08;7.80;;;4.13;;
75021;SDS011;63583;49.976;20.182;2023-04-24T07:20:34;5.60;;;4.10;;
75021;SDS011;63583;49.976;20.182;2023-04-24T07:23:00;6.95;;;4.10;;
75021;SDS011;63583;49.976;20.182;2023-04-24T07:25:26;5.55;;;3.90;;
75021;SDS011;63583;49.976;20.182;2023-04-24T07:27:52;5.47;;;4.05;;
75021;SDS011;63583;49.976;20.182;2023-04-24T07:30:18;6.30;;;3.65;;
75021;SDS011;63583;49.976;20.182;2023-04-24T07:32:43;5.55;;;3.08;;
75021;SDS011;63583;49.976;20.182;2023-04-24T07:35:09;6.03;;;3.72;;
75021;SDS011;63583;49.976;20.182;2023-04-24T07:37:35;5.43;;;3.65;;
75021;SDS011;63583;49.976;20.182;2023-04-24T07:40:01;5.22;;;3.85;;
75021;SDS011;63583;49.976;20.182;2023-04-24T07:42:27;5.05;;;3.70;;
75021;SDS011;63583;49.976;20.182;2023-04-24T07:44:55;4.75;;;3.35;;
75021;SDS011;63583;49.976;20.182;2023-04-24T07:47:21;5.10;;;3.30;;
75021;SDS011;63583;49.976;20.182;2023-04-24T07:49:47;5.60;;;3.35;;
75021;SDS011;63583;49.976;20.182;2023-04-24T07:52:12;4.43;;;3.38;;
75021;SDS011;63583;49.976;20.182;2023-04-24T07:54:38;5.57;;;3.38;;
75021;SDS011;63583;49.976;20.182;2023-04-24T07:57:03;4.70;;;3.50;;
75021;SDS011;63583;49.976;20.182;2023-04-24T07:59:30;4.95;;;3.13;;
75021;SDS011;63583;49.976;20.182;2023-04-24T08:01:55;5.22;;;3.30;;
75021;SDS011;63583;49.976;20.182;2023-04-24T08:04:21;6.35;;;3.50;;
75021;SDS011;63583;49.976;20.182;2023-04-24T08:06:49;5.55;;;3.47;;
75021;SDS011;63583;49.976;20.182;2023-04-24T08:09:15;7.20;;;3.50;;
75021;SDS011;63583;49.976;20.182;2023-04-24T08:11:40;4.85;;;3.20;;
75021;SDS011;63583;49.976;20.182;2023-04-24T08:14:06;5.53;;;3.13;;
75021;SDS011;63583;49.976;20.182;2023-04-24T08:16:32;7.20;;;3.03;;
75021;SDS011;63583;49.976;20.182;2023-04-24T08:18:58;5.00;;;3.45;;
75021;SDS011;63583;49.976;20.182;2023-04-24T08:21:24;5.35;;;3.40;;
75021;SDS011;63583;49.976;20.182;2023-04-24T08:23:51;5.82;;;2.95;;
75021;SDS011;63583;49.976;20.182;2023-04-24T08:26:17;4.65;;;3.13;;
75021;SDS011;63583;49.976;20.182;2023-04-24T08:28:42;4.68;;;3.15;;
75021;SDS011;63583;49.976;20.182;2023-04-24T08:31:08;4.68;;;2.65;;
75021;SDS011;63583;49.976;20.182;2023-04-24T08:33:34;4.18;;;3.25;;
75021;SDS011;63583;49.976;20.182;2023-04-24T08:36:03;4.35;;;2.97;;
75021;SDS011;63583;49.976;20.182;2023-04-24T08:38:30;5.13;;;3.30;;
75021;SDS011;63583;49.976;20.182;2023-04-24T08:40:59;9.23;;;3.40;;
75021;SDS011;63583;49.976;20.182;2023-04-24T08:43:26;4.50;;;3.10;;
75021;SDS011;63583;49.976;20.182;2023-04-24T08:45:52;4.20;;;3.10;;
75021;SDS011;63583;49.976;20.182;2023-04-24T08:48:21;4.50;;;3.50;;
75021;SDS011;63583;49.976;20.182;2023-04-24T08:50:48;4.55;;;3.22;;
75021;SDS011;63583;49.976;20.182;2023-04-24T08:53:16;4.15;;;3.10;;
75021;SDS011;63583;49.976;20.182;2023-04-24T08:55:43;4.45;;;3.20;;
75021;SDS011;63583;49.976;20.182;2023-04-24T08:58:13;3.78;;;2.92;;
75021;SDS011;63583;49.976;20.182;2023-04-24T09:00:40;7.22;;;3.30;;
75021;SDS011;63583;49.976;20.182;2023-04-24T09:03:13;5.35;;;3.58;;
75021;SDS011;63583;49.976;20.182;2023-04-24T09:05:40;4.00;;;2.78;;
75021;SDS011;63583;49.976;20.182;2023-04-24T09:08:12;5.38;;;3.10;;
75021;SDS011;63583;49.976;20.182;2023-04-24T09:10:39;4.57;;;3.13;;
75021;SDS011;63583;49.976;20.182;2023-04-24T09:13:05;4.60;;;3.03;;
75021;SDS011;63583;49.976;20.182;2023-04-24T09:15:34;4.50;;;3.25;;
75021;SDS011;63583;49.976;20.182;2023-04-24T09:18:00;4.68;;;2.70;;
75021;SDS011;63583;49.976;20.182;2023-04-24T09:20:26;5.28;;;2.92;;
75021;SDS011;63583;49.976;20.182;2023-04-24T09:22:55;5.70;;;3.25;;
75021;SDS011;63583;49.976;20.182;2023-04-24T09:25:22;4.57;;;3.33;;
75021;SDS011;63583;49.976;20.182;2023-04-24T09:27:48;4.70;;;3.22;;
75021;SDS011;63583;49.976;20.182;2023-04-24T09:30:14;4.43;;;2.85;;
75021;SDS011;63583;49.976;20.182;2023-04-24T09:32:48;5.47;;;3.30;;
75021;SDS011;63583;49.976;20.182;2023-04-24T09:35:14;5.10;;;3.50;;
75021;SDS011;63583;49.976;20.182;2023-04-24T09:37:41;5.57;;;3.22;;
75021;SDS011;63583;49.976;20.182;2023-04-24T09:42:37;4.07;;;2.95;;
75021;SDS011;63583;49.976;20.182;2023-04-24T09:45:04;5.25;;;3.25;;
75021;SDS011;63583;49.976;20.182;2023-04-24T09:47:38;3.85;;;3.05;;
75021;SDS011;63583;49.976;20.182;2023-04-24T09:50:11;4.05;;;3.20;;
75021;SDS011;63583;49.976;20.182;2023-04-24T09:52:44;4.57;;;3.13;;
75021;SDS011;63583;49.976;20.182;2023-04-24T09:55:21;5.32;;;3.58;;
75021;SDS011;63583;49.976;20.182;2023-04-24T09:57:50;5.30;;;3.20;;
75021;SDS011;63583;49.976;20.182;2023-04-24T10:00:18;4.55;;;3.58;;
75021;SDS011;63583;49.976;20.182;2023-04-24T10:02:49;4.95;;;3.47;;
75021;SDS011;63583;49.976;20.182;2023-04-24T10:07:41;6.00;;;2.83;;
75021;SDS011;63583;49.976;20.182;2023-04-24T10:10:08;4.72;;;3.42;;
75021;SDS011;63583;49.976;20.182;2023-04-24T10:12:35;5.90;;;3.13;;
75021;SDS011;63583;49.976;20.182;2023-04-24T10:15:01;4.05;;;2.80;;
75021;SDS011;63583;49.976;20.182;2023-04-24T10:17:28;5.68;;;2.90;;
75021;SDS011;63583;49.976;20.182;2023-04-24T10:19:54;4.05;;;3.05;;
75021;SDS011;63583;49.976;20.182;2023-04-24T10:22:20;6.07;;;3.47;;
75021;SDS011;63583;49.976;20.182;2023-04-24T10:24:47;5.70;;;3.55;;
75021;SDS011;63583;49.976;20.182;2023-04-24T10:27:15;6.35;;;3.17;;
75021;SDS011;63583;49.976;20.182;2023-04-24T10:29:41;4.45;;;3.80;;
75021;SDS011;63583;49.976;20.182;2023-04-24T10:32:09;4.28;;;3.17;;
75021;SDS011;63583;49.976;20.182;2023-04-24T10:34:35;4.72;;;3.03;;
75021;SDS011;63583;49.976;20.182;2023-04-24T10:37:01;4.13;;;2.92;;
75021;SDS011;63583;49.976;20.182;2023-04-24T10:39:27;4.47;;;3.42;;
75021;SDS011;63583;49.976;20.182;2023-04-24T10:41:54;4.35;;;3.15;;
75021;SDS011;63583;49.976;20.182;2023-04-24T10:44:22;6.07;;;3.40;;
75021;SDS011;63583;49.976;20.182;2023-04-24T10:46:52;5.32;;;3.40;;
75021;SDS011;63583;49.976;20.182;2023-04-24T10:49:27;4.82;;;3.40;;
75021;SDS011;63583;49.976;20.182;2023-04-24T10:51:59;3.50;;;2.85;;
75021;SDS011;63583;49.976;20.182;2023-04-24T10:54:33;6.18;;;3.22;;
75021;SDS011;63583;49.976;20.182;2023-04-24T10:57:46;5.03;;;3.60;;
75021;SDS011;63583;49.976;20.182;2023-04-24T11:02:46;5.13;;;3.22;;
75021;SDS011;63583;49.976;20.182;2023-04-24T11:05:18;4.78;;;3.33;;
75021;SDS011;63583;49.976;20.182;2023-04-24T11:10:41;4.75;;;3.65;;
75021;SDS011;63583;49.976;20.182;2023-04-24T11:13:09;4.95;;;3.78;;
75021;SDS011;63583;49.976;20.182;2023-04-24T11:15:35;4.55;;;3.63;;
75021;SDS011;63583;49.976;20.182;2023-04-24T11:18:01;5.57;;;3.63;;
75021;SDS011;63583;49.976;20.182;2023-04-24T11:20:27;5.28;;;3.72;;
75021;SDS011;63583;49.976;20.182;2023-04-24T11:22:53;4.97;;;3.65;;
75021;SDS011;63583;49.976;20.182;2023-04-24T11:25:20;5.43;;;3.60;;
75021;SDS011;63583;49.976;20.182;2023-04-24T11:27:47;6.05;;;3.53;;
75021;SDS011;63583;49.976;20.182;2023-04-24T11:30:19;5.82;;;4.13;;
75021;SDS011;63583;49.976;20.182;2023-04-24T11:32:50;6.05;;;3.58;;
75021;SDS011;63583;49.976;20.182;2023-04-24T11:35:17;5.03;;;3.65;;
75021;SDS011;63583;49.976;20.182;2023-04-24T11:37:45;6.30;;;4.05;;
75021;SDS011;63583;49.976;20.182;2023-04-24T11:40:13;6.70;;;3.80;;
75021;SDS011;63583;49.976;20.182;2023-04-24T11:42:42;5.85;;;3.90;;
75021;SDS011;63583;49.976;20.182;2023-04-24T11:45:10;4.68;;;3.67;;
75021;SDS011;63583;49.976;20.182;2023-04-24T11:50:04;6.40;;;3.75;;
75021;SDS011;63583;49.976;20.182;2023-04-24T11:52:33;6.03;;;3.42;;
75021;SDS011;63583;49.976;20.182;2023-04-24T11:55:01;5.47;;;3.88;;
75021;SDS011;63583;49.976;20.182;2023-04-24T11:57:27;7.47;;;4.10;;
75021;SDS011;63583;49.976;20.182;2023-04-24T11:59:58;4.90;;;3.53;;
75021;SDS011;63583;49.976;20.182;2023-04-24T12:02:25;5.45;;;4.18;;
75021;SDS011;63583;49.976;20.182;2023-04-24T12:04:52;4.75;;;3.33;;
75021;SDS011;63583;49.976;20.182;2023-04-24T12:07:19;7.22;;;3.88;;
75021;SDS011;63583;49.976;20.182;2023-04-24T12:09:45;5.65;;;3.63;;
75021;SDS011;63583;49.976;20.182;2023-04-24T12:12:13;7.35;;;4.07;;
75021;SDS011;63583;49.976;20.182;2023-04-24T12:14:44;4.78;;;3.83;;
75021;SDS011;63583;49.976;20.182;2023-04-24T12:17:13;5.45;;;3.35;;
75021;SDS011;63583;49.976;20.182;2023-04-24T12:19:44;5.32;;;3.88;;
75021;SDS011;63583;49.976;20.182;2023-04-24T12:22:11;5.00;;;3.50;;
75021;SDS011;63583;49.976;20.182;2023-04-24T12:24:54;6.13;;;3.72;;
75021;SDS011;63583;49.976;20.182;2023-04-24T12:27:24;6.43;;;3.88;;
75021;SDS011;63583;49.976;20.182;2023-04-24T12:29:57;4.25;;;3.65;;
75021;SDS011;63583;49.976;20.182;2023-04-24T12:32:24;4.57;;;3.83;;
75021;SDS011;63583;49.976;20.182;2023-04-24T12:34:53;7.65;;;4.15;;
75021;SDS011;63583;49.976;20.182;2023-04-24T12:37:20;6.53;;;4.00;;
75021;SDS011;63583;49.976;20.182;2023-04-24T12:39:58;7.38;;;3.33;;
75021;SDS011;63583;49.976;20.182;2023-04-24T12:42:26;4.28;;;3.20;;
75021;SDS011;63583;49.976;20.182;2023-04-24T12:44:56;5.10;;;3.45;;
75021;SDS011;63583;49.976;20.182;2023-04-24T12:49:49;8.25;;;3.58;;
75021;SDS011;63583;49.976;20.182;2023-04-24T12:52:18;7.50;;;4.43;;
75021;SDS011;63583;49.976;20.182;2023-04-24T12:54:45;5.97;;;4.20;;
75021;SDS011;63583;49.976;20.182;2023-04-24T12:57:11;7.70;;;4.05;;
75021;SDS011;63583;49.976;20.182;2023-04-24T12:59:36;5.88;;;4.18;;
75021;SDS011;63583;49.976;20.182;2023-04-24T13:02:04;6.13;;;3.60;;
75021;SDS011;63583;49.976;20.182;2023-04-24T13:04:31;6.38;;;3.60;;
75021;SDS011;63583;49.976;20.182;2023-04-24T13:06:57;6.40;;;3.83;;
75021;SDS011;63583;49.976;20.182;2023-04-24T13:09:23;6.63;;;4.38;;
75021;SDS011;63583;49.976;20.182;2023-04-24T13:11:49;7.82;;;4.00;;
75021;SDS011;63583;49.976;20.182;2023-04-24T13:14:15;7.60;;;4.43;;
75021;SDS011;63583;49.976;20.182;2023-04-24T13:16:41;6.10;;;3.92;;
75021;SDS011;63583;49.976;20.182;2023-04-24T13:19:07;5.82;;;3.67;;
75021;SDS011;63583;49.976;20.182;2023-04-24T13:21:32;6.45;;;3.67;;
75021;SDS011;63583;49.976;20.182;2023-04-24T13:23:58;4.88;;;3.53;;
75021;SDS011;63583;49.976;20.182;2023-04-24T13:26:24;5.03;;;3.60;;
75021;SDS011;63583;49.976;20.182;2023-04-24T13:28:50;9.23;;;4.07;;
75021;SDS011;63583;49.976;20.182;2023-04-24T13:31:16;5.70;;;3.67;;
75021;SDS011;63583;49.976;20.182;2023-04-24T13:33:42;5.80;;;3.78;;
75021;SDS011;63583;49.976;20.182;2023-04-24T13:36:08;5.30;;;3.78;;
75021;SDS011;63583;49.976;20.182;2023-04-24T13:38:33;4.60;;;3.25;;
75021;SDS011;63583;49.976;20.182;2023-04-24T13:40:59;4.45;;;3.25;;
75021;SDS011;63583;49.976;20.182;2023-04-24T13:43:25;5.75;;;3.30;;
75021;SDS011;63583;49.976;20.182;2023-04-24T13:45:51;3.85;;;3.00;;
75021;SDS011;63583;49.976;20.182;2023-04-24T13:48:16;4.63;;;3.33;;
75021;SDS011;63583;49.976;20.182;2023-04-24T13:50:43;7.30;;;3.05;;
75021;SDS011;63583;49.976;20.182;2023-04-24T13:53:09;3.92;;;2.95;;
75021;SDS011;63583;49.976;20.182;2023-04-24T13:55:35;5.53;;;3.20;;
75021;SDS011;63583;49.976;20.182;2023-04-24T13:58:01;3.58;;;2.83;;
75021;SDS011;63583;49.976;20.182;2023-04-24T14:00:27;4.95;;;2.67;;
75021;SDS011;63583;49.976;20.182;2023-04-24T14:02:53;4.38;;;2.67;;
75021;SDS011;63583;49.976;20.182;2023-04-24T14:05:19;4.85;;;2.95;;
75021;SDS011;63583;49.976;20.182;2023-04-24T14:07:46;4.97;;;3.00;;
75021;SDS011;63583;49.976;20.182;2023-04-24T14:10:12;4.82;;;3.45;;
75021;SDS011;63583;49.976;20.182;2023-04-24T14:12:37;3.90;;;2.80;;
75021;SDS011;63583;49.976;20.182;2023-04-24T14:15:04;3.83;;;2.42;;
75021;SDS011;63583;49.976;20.182;2023-04-24T14:17:30;3.92;;;2.70;;
75021;SDS011;63583;49.976;20.182;2023-04-24T14:19:56;4.40;;;2.60;;
75021;SDS011;63583;49.976;20.182;2023-04-24T14:22:22;4.28;;;2.65;;
75021;SDS011;63583;49.976;20.182;2023-04-24T14:24:48;8.27;;;3.20;;
75021;SDS011;63583;49.976;20.182;2023-04-24T14:27:13;4.13;;;2.92;;
75021;SDS011;63583;49.976;20.182;2023-04-24T14:29:39;3.63;;;2.50;;
75021;SDS011;63583;49.976;20.182;2023-04-24T14:32:05;4.88;;;2.90;;
75021;SDS011;63583;49.976;20.182;2023-04-24T14:34:30;3.85;;;2.75;;
75021;SDS011;63583;49.976;20.182;2023-04-24T14:36:56;5.20;;;2.90;;
75021;SDS011;63583;49.976;20.182;2023-04-24T14:39:22;5.22;;;2.88;;
75021;SDS011;63583;49.976;20.182;2023-04-24T14:41:47;4.32;;;2.90;;
75021;SDS011;63583;49.976;20.182;2023-04-24T14:44:13;4.38;;;3.20;;
75021;SDS011;63583;49.976;20.182;2023-04-24T14:46:39;6.05;;;3.50;;